Time;durP1;ratioP1;P1;durP2;ratioP2;P2;SDS_P1;SDS_P2;PMS_P1;PMS_P2;Temp;Humidity;BMP_temperature;BMP_pressure;BME280_temperature;BME280_humidity;BME280_pressure;Samples;Min_cycle;Max_cycle;Signal;HPM_P1;HPM_P2
2021/12/27 00:01:34;;;;;;;34.72;25.73;;;;;;;5.10;84.03;99993.91;3569793;40;20122;-65
2021/12/27 00:04:00;;;;;;;35.55;25.63;;;;;;;5.09;84.23;99990.41;3571053;40;20093;-65
2021/12/27 00:06:25;;;;;;;33.42;24.52;;;;;;;5.09;84.00;99994.88;3570687;40;20080;-65
2021/12/27 00:08:51;;;;;;;33.03;25.13;;;;;;;5.10;84.22;99989.44;3558786;40;20299;-64
2021/12/27 00:11:19;;;;;;;33.67;25.15;;;;;;;5.10;84.23;99993.91;3571396;40;20072;-65
2021/12/27 00:13:44;;;;;;;34.08;26.48;;;;;;;5.09;83.75;99986.88;3569846;40;20057;-65
2021/12/27 00:16:10;;;;;;;37.28;26.67;;;;;;;5.12;84.07;99990.22;3571786;40;20057;-66
2021/12/27 00:18:37;;;;;;;37.60;27.48;;;;;;;4.95;83.87;99962.75;3571750;40;20056;-66
2021/12/27 00:21:04;;;;;;;38.22;27.33;;;;;;;5.13;83.84;99994.59;3570596;40;20885;-66
2021/12/27 00:23:30;;;;;;;37.28;27.67;;;;;;;5.15;84.17;99988.38;3571794;40;20509;-65
2021/12/27 00:25:55;;;;;;;34.13;25.33;;;;;;;5.18;83.88;99981.06;3569472;40;20127;-66
2021/12/27 00:28:21;;;;;;;37.80;26.17;;;;;;;5.17;83.93;99982.03;3571244;40;20475;-64
2021/12/27 00:30:47;;;;;;;33.65;24.00;;;;;;;5.20;84.24;99988.97;3571988;40;20056;-64
2021/12/27 00:33:13;;;;;;;31.83;25.08;;;;;;;5.21;84.04;99980.03;3571021;40;20055;-65
2021/12/27 00:35:40;;;;;;;32.05;24.55;;;;;;;5.19;83.83;99972.13;3565860;40;20340;-64
2021/12/27 00:38:07;;;;;;;35.15;25.45;;;;;;;4.91;83.27;99923.91;3571362;40;20311;-66
2021/12/27 00:40:33;;;;;;;35.65;26.02;;;;;;;5.18;83.53;99966.88;3566505;40;20076;-66
2021/12/27 00:42:58;;;;;;;33.65;24.95;;;;;;;5.19;83.75;99956.13;3569597;40;20126;-65
2021/12/27 00:45:24;;;;;;;32.78;24.80;;;;;;;5.19;84.00;99956.13;3570168;40;20059;-65
2021/12/27 00:47:51;;;;;;;34.40;25.55;;;;;;;5.23;84.06;99952.38;3571169;40;20052;-66
2021/12/27 00:50:17;;;;;;;33.33;25.05;;;;;;;5.24;83.90;99951.44;3573036;40;20052;-63
2021/12/27 00:52:43;;;;;;;34.72;24.65;;;;;;;5.25;83.51;99950.47;3570856;40;20056;-66
2021/12/27 00:55:13;;;;;;;32.88;24.13;;;;;;;5.25;84.01;99934.50;3571614;40;20059;-66
2021/12/27 00:57:39;;;;;;;31.52;23.95;;;;;;;5.27;83.77;99939.75;3570037;40;20284;-66
2021/12/27 01:00:10;;;;;;;33.10;24.42;;;;;;;5.27;84.08;99940.59;3571400;40;20063;-65
2021/12/27 01:02:36;;;;;;;30.75;23.08;;;;;;;5.23;84.32;99931.06;3572969;40;20064;-66
2021/12/27 01:05:03;;;;;;;32.55;23.88;;;;;;;5.27;83.88;99937.94;3571598;40;20078;-66
2021/12/27 01:07:29;;;;;;;33.72;25.70;;;;;;;5.28;83.98;99933.47;3572283;40;20387;-65
2021/12/27 01:15:33;;;;;;;33.38;24.15;;;;;;;5.30;84.07;99931.59;3572088;40;20048;-66
2021/12/27 01:17:56;;;;;;;34.10;25.67;;;;;;;5.29;83.77;99928.03;3570932;40;20429;-65
2021/12/27 01:20:25;;;;;;;33.00;25.05;;;;;;;5.33;83.90;99934.09;3570528;40;20045;-66
2021/12/27 01:22:54;;;;;;;33.35;24.40;;;;;;;5.33;84.44;99942.94;3571290;40;20063;-66
2021/12/27 01:25:21;;;;;;;35.85;25.67;;;;;;;5.15;84.01;99897.78;3573043;40;20069;-66
2021/12/27 01:27:48;;;;;;;35.42;26.00;;;;;;;5.35;84.48;99934.84;3572523;40;20120;-66
2021/12/27 01:30:19;;;;;;;31.55;24.02;;;;;;;5.13;84.19;99879.22;3566872;40;20497;-65
2021/12/27 01:32:49;;;;;;;32.78;25.15;;;;;;;5.14;84.29;99888.94;3570130;40;20726;-66
2021/12/27 01:35:15;;;;;;;34.85;25.95;;;;;;;5.39;85.08;99925.72;3570655;40;20149;-65
2021/12/27 01:37:41;;;;;;;33.28;25.30;;;;;;;5.45;84.41;99924.53;3571226;40;20311;-65
2021/12/27 01:40:10;;;;;;;34.20;24.83;;;;;;;5.47;84.11;99922.66;3572694;40;20087;-66
2021/12/27 01:42:36;;;;;;;34.15;24.60;;;;;;;5.46;84.13;99921.81;3571083;40;20056;-66
2021/12/27 01:45:04;;;;;;;35.42;25.77;;;;;;;5.49;84.28;99926.13;3571734;40;20431;-66
2021/12/27 01:47:31;;;;;;;35.35;25.73;;;;;;;5.50;84.33;99919.84;3573033;40;20060;-66
2021/12/27 01:49:57;;;;;;;33.95;25.25;;;;;;;5.51;84.27;99918.88;3562132;40;20161;-66
2021/12/27 01:52:23;;;;;;;34.53;26.70;;;;;;;5.48;84.42;99919.03;3570503;40;20053;-65
2021/12/27 01:54:51;;;;;;;33.70;25.17;;;;;;;5.28;84.26;99874.84;3571576;40;20057;-66
2021/12/27 01:57:16;;;;;;;34.63;25.40;;;;;;;5.56;84.27;99916.81;3572304;40;20126;-66
2021/12/27 01:59:42;;;;;;;35.13;26.90;;;;;;;5.57;84.06;99913.19;3570581;40;20052;-66
2021/12/27 02:02:08;;;;;;;32.85;25.08;;;;;;;5.59;83.98;99916.66;3571269;40;20138;-66
2021/12/27 02:04:33;;;;;;;33.05;25.15;;;;;;;5.59;83.66;99911.31;3572549;40;20059;-66
2021/12/27 02:06:59;;;;;;;36.92;25.13;;;;;;;5.56;83.57;99906.16;3563151;40;20390;-66
2021/12/27 02:09:35;;;;;;;32.17;24.67;;;;;;;5.60;83.94;99907.69;3571015;40;20091;-65
2021/12/27 02:12:00;;;;;;;33.67;24.60;;;;;;;5.60;83.63;99907.69;3571927;40;20069;-65
2021/12/27 02:14:26;;;;;;;33.33;24.20;;;;;;;5.48;83.78;99879.91;3571286;40;20067;-65
2021/12/27 02:16:52;;;;;;;33.95;25.05;;;;;;;5.63;83.54;99907.53;3605350;23;20049;-61
2021/12/27 02:19:17;;;;;;;35.90;25.00;;;;;;;5.59;84.28;99896.19;3582047;40;20068;-62
2021/12/27 02:21:43;;;;;;;35.72;25.48;;;;;;;5.63;83.95;99912.88;3580847;40;20071;-62
2021/12/27 02:24:08;;;;;;;37.05;25.83;;;;;;;5.61;83.82;99901.41;3582794;40;20101;-62
2021/12/27 02:26:34;;;;;;;32.35;24.35;;;;;;;5.57;84.02;99897.22;3581938;40;20052;-62
2021/12/27 02:29:00;;;;;;;35.65;25.40;;;;;;;5.57;84.54;99899.88;3568885;40;20060;-62
2021/12/27 02:31:27;;;;;;;34.28;24.92;;;;;;;5.57;84.20;99897.22;3570905;40;20072;-62
2021/12/27 02:33:53;;;;;;;33.88;24.00;;;;;;;5.58;84.29;99905.13;3568714;40;20085;-64
2021/12/27 02:36:19;;;;;;;35.03;25.55;;;;;;;5.61;83.78;99901.41;3570536;40;20261;-65
2021/12/27 02:38:45;;;;;;;35.83;25.90;;;;;;;5.65;84.17;99905.66;3571482;40;20084;-62
2021/12/27 02:41:13;;;;;;;35.25;26.23;;;;;;;5.47;84.03;99878.22;3571330;40;20060;-62
2021/12/27 02:43:42;;;;;;;37.13;25.25;;;;;;;5.64;84.55;99903.91;3570242;40;20049;-62
2021/12/27 02:46:12;;;;;;;36.50;25.25;;;;;;;5.70;84.19;99911.56;3570365;40;20056;-62
2021/12/27 02:48:44;;;;;;;35.47;25.27;;;;;;;5.53;83.92;99875.19;3570540;40;20306;-63
2021/12/27 02:51:10;;;;;;;37.17;25.85;;;;;;;5.72;84.42;99907.00;3559630;40;20053;-63
2021/12/27 02:53:36;;;;;;;36.83;26.17;;;;;;;5.71;84.21;99888.41;3570459;40;20063;-63
2021/12/27 02:56:06;;;;;;;36.72;25.95;;;;;;;5.73;83.86;99887.41;3568749;40;20130;-62
2021/12/27 02:58:34;;;;;;;36.53;25.95;;;;;;;5.57;84.61;99862.56;3567866;40;20761;-62
2021/12/27 03:01:15;;;;;;;35.97;25.25;;;;;;;5.73;84.10;99886.53;3569103;40;20048;-61
2021/12/27 03:03:41;;;;;;;34.67;25.45;;;;;;;5.65;84.07;99881.66;3567850;40;20057;-62
2021/12/27 03:06:08;;;;;;;35.17;24.98;;;;;;;5.57;84.58;99859.88;3568354;40;20451;-62
2021/12/27 03:08:35;;;;;;;35.17;25.85;;;;;;;5.67;84.24;99877.06;3568899;40;20090;-62
2021/12/27 03:11:04;;;;;;;37.15;26.45;;;;;;;5.76;83.89;99884.56;3568748;40;20540;-65
2021/12/27 03:13:34;;;;;;;36.63;25.45;;;;;;;5.74;83.98;99875.81;3567917;40;20383;-63
2021/12/27 03:16:06;;;;;;;35.00;25.13;;;;;;;5.76;83.99;99871.22;3567826;40;20378;-62
2021/12/27 03:18:38;;;;;;;34.78;25.05;;;;;;;5.77;84.52;99872.97;3572432;40;20061;-63
2021/12/27 03:21:06;;;;;;;36.80;25.95;;;;;;;5.79;84.30;99871.03;3567834;40;20416;-64
2021/12/27 03:23:33;;;;;;;38.50;26.30;;;;;;;5.74;84.26;99862.47;3568344;40;20469;-63
2021/12/27 03:25:59;;;;;;;35.33;25.25;;;;;;;5.67;84.33;99858.41;3571912;40;20092;-62
2021/12/27 03:28:26;;;;;;;38.42;25.60;;;;;;;5.79;84.16;99872.84;3570058;40;20056;-62
2021/12/27 03:30:51;;;;;;;35.05;25.00;;;;;;;5.70;84.61;99850.25;3567799;40;20044;-62
2021/12/27 03:33:22;;;;;;;34.95;25.73;;;;;;;5.82;84.33;99868.19;3568158;40;20092;-63
2021/12/27 03:36:01;;;;;;;35.08;25.02;;;;;;;5.82;84.46;99876.19;3569353;40;20041;-62
2021/12/27 03:38:38;;;;;;;37.85;26.60;;;;;;;5.79;84.55;99863.03;3568343;40;20056;-63
2021/12/27 03:41:07;;;;;;;31.77;24.88;;;;;;;5.82;84.53;99868.19;3569386;40;20075;-62
2021/12/27 03:43:33;;;;;;;33.92;25.00;;;;;;;5.78;85.11;99857.81;3569718;40;20049;-65
2021/12/27 03:45:59;;;;;;;32.00;24.05;;;;;;;5.76;84.59;99849.88;3568531;40;20062;-64
2021/12/27 03:48:25;;;;;;;34.80;25.30;;;;;;;5.88;84.52;99863.47;3568900;40;20051;-62
2021/12/27 03:50:50;;;;;;;34.63;24.05;;;;;;;5.83;84.67;99861.06;3567462;40;20134;-61
2021/12/27 03:53:16;;;;;;;35.38;24.83;;;;;;;5.45;84.63;99780.63;3569855;40;20053;-62
2021/12/27 03:55:41;;;;;;;35.60;25.05;;;;;;;5.91;84.55;99856.16;3569562;40;20419;-62
2021/12/27 03:58:23;;;;;;;31.83;23.85;;;;;;;5.81;84.88;99826.50;3570909;40;20129;-63
2021/12/27 04:03:31;;;;;;;34.13;25.17;;;;;;;5.94;84.67;99833.81;3570064;40;20053;-62
2021/12/27 04:05:58;;;;;;;34.97;25.05;;;;;;;5.86;84.76;99823.53;3570827;40;20060;-62
2021/12/27 04:08:24;;;;;;;37.13;26.48;;;;;;;5.97;84.30;99838.97;3569131;40;20057;-62
2021/12/27 04:10:50;;;;;;;34.05;24.65;;;;;;;5.97;84.76;99837.16;3571293;40;20532;-62
2021/12/27 04:13:21;;;;;;;33.65;24.75;;;;;;;5.79;84.43;99798.19;3567869;40;20092;-63
2021/12/27 04:15:48;;;;;;;35.67;25.48;;;;;;;5.88;85.06;99811.00;3568402;40;20053;-62
2021/12/27 04:18:15;;;;;;;36.63;26.35;;;;;;;6.01;84.35;99828.00;3569310;40;20096;-62
2021/12/27 04:20:41;;;;;;;34.47;25.25;;;;;;;6.01;84.56;99827.16;3568207;40;20052;-62
2021/12/27 04:23:07;;;;;;;36.33;25.65;;;;;;;5.60;84.81;99753.09;3571088;40;20053;-62
2021/12/27 04:25:34;;;;;;;33.35;24.45;;;;;;;6.05;84.94;99828.69;3575768;40;20052;-62
2021/12/27 04:28:01;;;;;;;37.47;26.65;;;;;;;6.04;84.76;99818.97;3569868;40;20885;-65
2021/12/27 04:30:26;;;;;;;37.90;26.35;;;;;;;6.09;84.86;99821.34;3572114;40;20093;-62
2021/12/27 04:32:52;;;;;;;32.92;23.92;;;;;;;6.05;84.26;99807.34;3572018;40;20049;-63
2021/12/27 04:35:20;;;;;;;35.50;25.63;;;;;;;5.93;84.33;99779.63;3572224;40;20052;-62
2021/12/27 04:37:48;;;;;;;32.83;24.30;;;;;;;6.12;84.96;99819.41;3570374;40;20122;-62
2021/12/27 04:40:17;;;;;;;35.28;25.67;;;;;;;6.13;84.87;99802.44;3573526;40;20374;-62
2021/12/27 04:42:50;;;;;;;34.50;25.58;;;;;;;6.15;84.53;99804.97;3572594;40;20063;-62
2021/12/27 04:45:17;;;;;;;33.70;24.50;;;;;;;6.10;85.08;99794.59;3570403;40;20092;-62
2021/12/27 04:47:44;;;;;;;37.80;25.98;;;;;;;6.18;84.40;99807.47;3571258;40;20406;-62
2021/12/27 04:50:10;;;;;;;36.38;26.23;;;;;;;6.21;84.95;99804.63;3569859;40;20057;-62
2021/12/27 04:52:36;;;;;;;34.70;24.65;;;;;;;6.10;84.89;99785.75;3572496;40;20052;-62
2021/12/27 04:55:03;;;;;;;32.40;23.52;;;;;;;6.20;84.63;99800.25;3569485;40;20199;-62
2021/12/27 04:57:29;;;;;;;30.40;23.35;;;;;;;6.18;84.64;99792.31;3571217;40;20123;-62
2021/12/27 04:59:55;;;;;;;33.42;23.75;;;;;;;5.67;84.78;99711.78;3572224;40;20060;-63
2021/12/27 05:02:20;;;;;;;30.67;23.67;;;;;;;6.24;83.99;99799.94;3570518;40;20053;-62
2021/12/27 05:04:46;;;;;;;32.70;24.52;;;;;;;6.24;85.06;99794.63;3569530;40;20056;-62
2021/12/27 05:07:12;;;;;;;34.53;25.05;;;;;;;6.16;84.28;99783.56;3572535;40;20260;-62
2021/12/27 05:09:39;;;;;;;32.40;24.13;;;;;;;6.28;84.41;99798.84;3569820;40;20351;-62
2021/12/27 05:12:05;;;;;;;31.65;23.98;;;;;;;6.30;84.42;99801.41;3571619;40;20059;-62
2021/12/27 05:14:31;;;;;;;31.88;23.08;;;;;;;6.30;84.61;99803.22;3571783;40;20056;-62
2021/12/27 05:16:58;;;;;;;34.08;23.27;;;;;;;6.32;84.40;99804.00;3572607;40;20060;-62
2021/12/27 05:19:23;;;;;;;29.27;23.38;;;;;;;6.32;84.29;99801.31;3569179;40;20057;-62
2021/12/27 05:21:49;;;;;;;31.80;23.77;;;;;;;6.30;84.58;99796.06;3571696;40;20091;-62
2021/12/27 05:24:15;;;;;;;33.80;23.35;;;;;;;6.21;84.47;99785.94;3573769;40;20059;-62
2021/12/27 05:26:41;;;;;;;32.53;24.00;;;;;;;6.35;84.33;99801.13;3570061;40;20068;-62
2021/12/27 05:29:07;;;;;;;32.17;23.00;;;;;;;6.36;84.54;99792.16;3570025;40;20061;-62
2021/12/27 05:31:32;;;;;;;29.60;22.52;;;;;;;6.34;84.85;99799.41;3571664;40;20048;-62
2021/12/27 05:33:58;;;;;;;31.27;23.02;;;;;;;6.34;84.37;99780.72;3569393;40;20070;-62
2021/12/27 05:36:23;;;;;;;30.88;22.67;;;;;;;6.38;84.89;99791.13;3570138;40;20049;-62
2021/12/27 05:38:49;;;;;;;28.65;21.77;;;;;;;6.36;84.87;99774.34;3569734;40;20137;-62
2021/12/27 05:41:15;;;;;;;30.48;22.55;;;;;;;6.26;84.51;99758.03;3568381;40;20053;-62
2021/12/27 05:43:40;;;;;;;31.13;23.50;;;;;;;6.37;84.59;99776.03;3570891;40;20049;-62
2021/12/27 05:46:06;;;;;;;30.75;22.27;;;;;;;6.36;84.74;99773.47;3568937;40;20378;-62
2021/12/27 05:48:32;;;;;;;30.38;22.35;;;;;;;6.35;84.94;99767.28;3572114;40;20068;-63
2021/12/27 05:50:57;;;;;;;30.45;23.45;;;;;;;6.39;84.86;99773.28;3570766;40;20089;-62
2021/12/27 05:53:23;;;;;;;31.00;22.58;;;;;;;6.39;84.60;99775.97;3567372;40;20299;-62
2021/12/27 05:55:50;;;;;;;28.35;22.23;;;;;;;6.41;84.66;99779.41;3569444;40;20053;-63
2021/12/27 05:58:16;;;;;;;29.65;21.98;;;;;;;6.47;84.32;99790.56;3569414;40;20371;-62
2021/12/27 06:00:42;;;;;;;74.47;47.47;;;;;;;6.51;84.76;99791.22;3570085;40;20060;-62
2021/12/27 06:03:07;;;;;;;34.50;25.42;;;;;;;6.53;84.39;99797.31;3569514;40;20060;-62
2021/12/27 06:05:33;;;;;;;30.70;23.02;;;;;;;6.56;84.82;99786.44;3569032;40;20482;-62
2021/12/27 06:08:01;;;;;;;32.28;23.60;;;;;;;6.52;84.79;99779.59;3570747;40;20087;-64
2021/12/27 06:10:26;;;;;;;32.55;23.73;;;;;;;6.52;84.33;99774.25;3570348;40;20056;-62
2021/12/27 06:12:53;;;;;;;31.33;22.48;;;;;;;6.40;84.47;99742.97;3571084;40;20060;-62
2021/12/27 06:15:18;;;;;;;30.15;22.90;;;;;;;6.20;84.98;99709.53;3568392;40;20068;-62
2021/12/27 06:17:44;;;;;;;30.77;22.90;;;;;;;6.58;84.95;99770.34;3569079;40;20072;-63
2021/12/27 06:20:17;;;;;;;31.20;22.58;;;;;;;6.62;84.49;99780.72;3568732;40;20056;-63
2021/12/27 06:22:57;;;;;;;30.35;23.10;;;;;;;6.63;84.83;99779.78;3568614;40;20395;-62
2021/12/27 06:25:23;;;;;;;29.80;21.52;;;;;;;6.63;84.51;99779.78;3571801;40;20045;-62
2021/12/27 06:27:49;;;;;;;32.78;22.95;;;;;;;6.57;84.63;99763.31;3566863;40;20067;-62
2021/12/27 06:30:16;;;;;;;31.33;23.35;;;;;;;6.53;85.26;99757.25;3567229;40;20045;-62
2021/12/27 06:32:44;;;;;;;31.95;23.73;;;;;;;6.70;84.89;99777.59;3568687;40;20415;-62
2021/12/27 06:35:13;;;;;;;31.25;22.42;;;;;;;6.61;85.43;99759.47;3568451;40;20053;-62
2021/12/27 06:37:41;;;;;;;32.55;22.98;;;;;;;6.68;84.73;99764.31;3567474;40;20412;-62
2021/12/27 06:40:10;;;;;;;32.80;22.67;;;;;;;6.73;84.76;99764.91;3567601;40;20131;-62
2021/12/27 06:42:36;;;;;;;31.73;22.92;;;;;;;6.66;84.52;99758.25;3571023;40;20055;-62
2021/12/27 06:45:03;;;;;;;30.45;22.33;;;;;;;6.59;84.82;99743.53;3567129;40;20583;-62
2021/12/27 06:47:29;;;;;;;28.92;21.60;;;;;;;6.72;84.58;99755.19;3568317;40;20053;-62
2021/12/27 06:49:55;;;;;;;29.63;21.63;;;;;;;6.80;84.72;99768.03;3572218;40;20053;-62
2021/12/27 06:52:20;;;;;;;30.33;21.80;;;;;;;6.81;84.82;99764.41;3569334;40;20063;-62
2021/12/27 06:54:47;;;;;;;28.92;21.13;;;;;;;6.74;84.48;99752.41;3570735;40;20052;-62
2021/12/27 06:57:13;;;;;;;29.02;21.65;;;;;;;6.78;84.61;99751.25;3569937;40;20335;-65
2021/12/27 06:59:39;;;;;;;29.75;21.73;;;;;;;6.82;84.71;99755.47;3561735;40;20067;-64
2021/12/27 07:02:05;;;;;;;30.27;21.77;;;;;;;6.76;84.57;99744.31;3567434;40;20477;-62
2021/12/27 07:04:31;;;;;;;29.30;22.20;;;;;;;6.83;84.58;99745.63;3571790;40;20546;-63
2021/12/27 07:06:57;;;;;;;31.60;21.05;;;;;;;6.76;84.11;99739.81;3570273;40;20401;-62
2021/12/27 07:09:23;;;;;;;30.90;21.25;;;;;;;6.82;84.71;99735.88;3569914;40;20061;-63
2021/12/27 07:11:49;;;;;;;30.90;21.70;;;;;;;6.83;84.61;99735.78;3569129;40;21779;-62
2021/12/27 07:14:14;;;;;;;33.20;23.30;;;;;;;6.43;84.77;99676.91;3569334;40;20065;-61
2021/12/27 07:16:41;;;;;;;28.92;21.73;;;;;;;6.76;84.49;99738.97;3570354;40;20044;-63
2021/12/27 07:19:06;;;;;;;30.13;21.20;;;;;;;6.78;84.31;99737.88;3567185;40;20045;-62
2021/12/27 07:21:32;;;;;;;30.23;20.35;;;;;;;6.78;84.45;99731.69;3568723;40;20487;-62
2021/12/27 07:23:58;;;;;;;29.92;21.67;;;;;;;6.80;85.29;99733.31;3569647;40;20412;-62
2021/12/27 07:26:24;;;;;;;32.55;22.02;;;;;;;6.72;84.90;99715.13;3572091;40;20045;-63
2021/12/27 07:28:49;;;;;;;30.38;21.23;;;;;;;6.71;84.67;99721.41;3568642;40;20298;-62
2021/12/27 07:31:15;;;;;;;32.92;22.10;;;;;;;6.78;84.89;99734.38;3569877;40;20138;-63
2021/12/27 07:33:41;;;;;;;31.83;22.65;;;;;;;6.51;84.71;99693.31;3569597;40;20052;-62
2021/12/27 07:36:11;;;;;;;34.33;22.45;;;;;;;6.59;84.87;99711.50;3566456;40;20055;-62
2021/12/27 07:38:41;;;;;;;31.50;21.95;;;;;;;6.64;84.84;99717.41;3570113;40;20052;-62
2021/12/27 07:41:07;;;;;;;32.50;22.73;;;;;;;6.66;85.06;99726.19;3569610;40;20063;-62
2021/12/27 07:43:33;;;;;;;31.88;22.50;;;;;;;6.68;85.42;99732.28;3569157;40;20052;-62
2021/12/27 07:45:59;;;;;;;33.33;23.88;;;;;;;6.70;84.80;99741.06;3564839;40;20063;-63
2021/12/27 07:48:25;;;;;;;32.55;23.13;;;;;;;6.65;84.76;99735.13;3566556;40;20064;-62
2021/12/27 07:50:50;;;;;;;28.55;21.80;;;;;;;6.64;85.07;99732.59;3567818;40;20571;-64
2021/12/27 07:53:17;;;;;;;31.58;22.45;;;;;;;6.71;84.80;99742.75;3570950;40;20063;-62
2021/12/27 07:55:42;;;;;;;34.90;22.52;;;;;;;6.68;85.18;99737.63;3560724;40;20084;-62
2021/12/27 07:58:08;;;;;;;33.72;24.33;;;;;;;6.64;84.98;99730.75;3569508;40;20072;-62
2021/12/27 08:00:34;;;;;;;33.65;24.00;;;;;;;6.50;84.54;99717.41;3569665;40;20138;-62
2021/12/27 08:02:59;;;;;;;34.42;21.52;;;;;;;6.64;84.66;99740.59;3567966;40;20060;-62
2021/12/27 08:05:26;;;;;;;29.33;20.50;;;;;;;6.61;84.47;99741.63;3568718;40;20609;-62
2021/12/27 08:07:51;;;;;;;30.23;21.42;;;;;;;6.57;84.78;99737.44;3568140;40;20076;-62
2021/12/27 08:10:17;;;;;;;29.50;20.40;;;;;;;6.51;84.76;99740.50;3567871;40;20355;-63
2021/12/27 08:12:44;;;;;;;30.38;21.23;;;;;;;6.51;84.69;99743.19;3565889;40;20084;-62
2021/12/27 08:15:12;;;;;;;31.58;20.60;;;;;;;6.52;84.73;99752.88;3566868;40;20477;-62
2021/12/27 08:17:39;;;;;;;30.73;20.83;;;;;;;6.49;84.21;99747.75;3603694;22;20669;-65
2021/12/27 08:20:07;;;;;;;30.95;21.02;;;;;;;6.43;84.75;99740.97;3581322;40;20341;-65
2021/12/27 08:22:33;;;;;;;26.73;19.83;;;;;;;6.50;85.27;99744.09;3568969;40;20059;-62
2021/12/27 08:24:59;;;;;;;27.10;20.20;;;;;;;6.50;84.74;99750.34;3579009;40;20060;-63
2021/12/27 08:27:28;;;;;;;27.63;20.42;;;;;;;6.52;84.82;99747.56;3578140;40;20421;-63
2021/12/27 08:29:54;;;;;;;31.38;21.35;;;;;;;6.54;84.67;99751.00;3578833;40;20580;-63
2021/12/27 08:32:20;;;;;;;32.85;21.27;;;;;;;6.27;85.20;99701.03;3580041;40;20060;-63
2021/12/27 08:34:45;;;;;;;50.95;32.72;;;;;;;6.56;85.02;99746.41;3576977;40;20076;-64
2021/12/27 08:37:11;;;;;;;43.42;28.42;;;;;;;6.55;85.21;99738.50;3580545;40;20087;-63
2021/12/27 08:39:38;;;;;;;38.10;27.30;;;;;;;6.58;84.99;99735.63;3570131;40;20060;-63
2021/12/27 08:42:10;;;;;;;34.63;22.85;;;;;;;6.55;84.76;99728.66;3581128;40;20052;-64
2021/12/27 08:44:36;;;;;;;28.63;20.77;;;;;;;6.57;84.56;99725.91;3570652;40;20048;-63
2021/12/27 08:47:04;;;;;;;28.33;19.88;;;;;;;6.39;84.56;99703.91;3579419;40;20307;-63
2021/12/27 08:49:29;;;;;;;27.17;19.33;;;;;;;6.52;84.40;99723.53;3579235;40;20052;-63
2021/12/27 08:51:55;;;;;;;24.35;17.77;;;;;;;6.51;84.38;99712.00;3579592;40;20060;-64
2021/12/27 08:54:20;;;;;;;25.90;18.88;;;;;;;6.51;84.32;99705.81;3581908;40;20126;-64
2021/12/27 08:56:46;;;;;;;22.52;17.23;;;;;;;6.48;84.96;99703.31;3578159;40;20057;-64
2021/12/27 08:59:12;;;;;;;27.58;18.30;;;;;;;6.29;85.05;99666.25;3575867;40;20057;-64
2021/12/27 09:01:37;;;;;;;24.52;17.98;;;;;;;6.49;84.54;99702.34;3577054;40;20059;-64
2021/12/27 09:04:04;;;;;;;29.17;18.40;;;;;;;6.51;84.87;99703.13;3580705;40;20131;-64
2021/12/27 09:06:33;;;;;;;23.55;17.90;;;;;;;6.52;84.64;99699.50;3577234;40;20133;-64
2021/12/27 09:08:59;;;;;;;24.90;18.95;;;;;;;6.57;84.91;99713.44;3578357;40;20118;-63
2021/12/27 09:11:25;;;;;;;23.90;17.20;;;;;;;6.60;84.58;99704.38;3581199;40;20080;-63
2021/12/27 09:13:51;;;;;;;21.70;16.98;;;;;;;6.60;84.02;99713.22;3583055;40;20060;-63
2021/12/27 09:16:16;;;;;;;22.27;16.63;;;;;;;6.62;84.29;99719.31;3581126;40;20052;-63
2021/12/27 09:18:42;;;;;;;21.40;16.45;;;;;;;6.63;84.27;99713.03;3578779;40;20053;-63
2021/12/27 09:21:08;;;;;;;21.13;16.23;;;;;;;6.60;84.18;99715.91;3581685;40;20058;-63
2021/12/27 09:23:33;;;;;;;23.73;18.05;;;;;;;6.69;83.71;99719.78;3579616;40;20192;-63
2021/12/27 09:25:59;;;;;;;20.73;16.33;;;;;;;6.72;83.88;99712.47;3569438;40;20676;-64
2021/12/27 09:28:25;;;;;;;22.55;15.98;;;;;;;6.78;83.30;99716.53;3581807;40;20060;-64
2021/12/27 09:30:50;;;;;;;23.85;16.80;;;;;;;6.84;83.34;99712.59;3581061;40;20075;-64
2021/12/27 09:33:16;;;;;;;21.40;15.68;;;;;;;6.89;83.18;99706.03;3581763;40;20056;-64
2021/12/27 09:35:42;;;;;;;24.70;18.02;;;;;;;6.92;83.22;99707.66;3580164;40;20093;-64
2021/12/27 09:38:08;;;;;;;20.35;15.80;;;;;;;6.95;83.08;99700.28;3581923;40;20048;-64
2021/12/27 09:40:35;;;;;;;19.05;14.45;;;;;;;6.96;82.50;99702.00;3582944;40;21591;-64
2021/12/27 09:43:01;;;;;;;18.48;14.07;;;;;;;6.99;82.12;99703.59;3581803;40;20335;-65
2021/12/27 09:45:27;;;;;;;23.40;18.00;;;;;;;7.02;82.14;99692.72;3582351;40;20171;-64
2021/12/27 09:47:53;;;;;;;21.05;16.38;;;;;;;7.07;82.29;99689.72;3579641;40;20098;-64
2021/12/27 09:50:32;;;;;;;19.63;15.70;;;;;;;7.13;82.83;99695.53;3580564;40;20463;-64
2021/12/27 09:52:58;;;;;;;17.88;13.93;;;;;;;7.09;82.35;99677.13;3580396;40;20120;-64
2021/12/27 09:55:27;;;;;;;16.70;13.27;;;;;;;7.26;81.75;99689.38;3580708;40;20080;-64
2021/12/27 09:57:53;;;;;;;18.77;13.38;;;;;;;7.34;81.45;99698.63;3580306;40;20126;-64
2021/12/27 10:00:20;;;;;;;18.13;13.50;;;;;;;7.40;81.30;99694.69;3581642;40;20044;-64
2021/12/27 10:02:54;;;;;;;19.05;13.55;;;;;;;7.48;81.48;99700.34;3579974;40;20060;-64
2021/12/27 10:05:21;;;;;;;17.08;12.68;;;;;;;7.55;81.06;99684.75;3579269;40;20068;-64
2021/12/27 10:07:47;;;;;;;16.77;12.07;;;;;;;7.55;80.73;99664.25;3580859;40;20044;-64
2021/12/27 10:10:12;;;;;;;15.60;11.95;;;;;;;7.56;79.91;99649.91;3581461;40;20050;-64
2021/12/27 10:12:39;;;;;;;16.15;11.95;;;;;;;7.56;80.00;99657.91;3580624;40;20056;-64
2021/12/27 10:15:11;;;;;;;16.17;11.23;;;;;;;7.57;80.12;99659.63;3579080;40;20052;-64
2021/12/27 10:17:41;;;;;;;20.05;13.75;;;;;;;7.42;79.91;99634.81;3577495;40;20053;-64
2021/12/27 10:20:24;;;;;;;14.35;11.07;;;;;;;7.66;80.17;99667.00;3579863;40;20059;-64
2021/12/27 10:22:55;;;;;;;14.23;11.23;;;;;;;7.67;79.62;99642.00;3576904;40;20071;-64
2021/12/27 10:25:25;;;;;;;15.00;11.50;;;;;;;7.95;79.31;99666.81;3576860;40;20055;-64
2021/12/27 10:27:54;;;;;;;15.38;10.38;;;;;;;7.97;78.59;99656.03;3569352;40;20049;-64
2021/12/27 10:30:28;;;;;;;15.80;10.88;;;;;;;7.89;78.06;99627.13;3579635;40;20145;-64
2021/12/27 10:33:24;;;;;;;12.57;10.48;;;;;;;8.10;78.73;99654.19;3563280;40;20107;-64
2021/12/27 10:35:56;;;;;;;12.90;10.07;;;;;;;8.14;78.43;99656.53;3579509;40;20079;-64
2021/12/27 10:38:31;;;;;;;13.90;10.80;;;;;;;8.22;78.29;99652.50;3580267;40;20421;-64
2021/12/27 10:41:11;;;;;;;13.30;10.93;;;;;;;8.27;78.98;99653.00;3580152;40;20044;-64
2021/12/27 10:43:56;;;;;;;13.13;10.98;;;;;;;8.38;78.78;99642.44;3580601;40;20056;-64
2021/12/27 10:46:22;;;;;;;12.93;10.77;;;;;;;8.48;78.42;99645.28;3581616;40;20048;-64
2021/12/27 10:48:57;;;;;;;32.20;22.60;;;;;;;8.59;78.37;99645.34;3576915;40;20434;-64
2021/12/27 10:51:24;;;;;;;17.02;12.00;;;;;;;8.70;77.84;99645.44;3579096;40;20051;-64
2021/12/27 10:53:55;;;;;;;15.30;9.57;;;;;;;8.77;76.52;99645.84;3572026;40;20137;-64
2021/12/27 10:56:25;;;;;;;11.90;10.07;;;;;;;8.73;76.59;99636.34;3580432;40;20052;-64
2021/12/27 10:59:00;;;;;;;12.32;9.35;;;;;;;8.69;76.83;99646.41;3580721;40;20404;-64
2021/12/27 11:01:28;;;;;;;11.85;10.02;;;;;;;8.66;77.70;99635.03;3582965;40;20048;-64
2021/12/27 11:04:00;;;;;;;13.07;9.15;;;;;;;8.70;77.80;99634.72;3580824;40;20555;-64
2021/12/27 11:06:30;;;;;;;11.35;9.70;;;;;;;8.71;78.06;99640.94;3580680;40;20418;-64
2021/12/27 11:08:57;;;;;;;10.25;9.15;;;;;;;8.72;77.50;99643.53;3571880;40;20106;-64
2021/12/27 11:11:26;;;;;;;12.70;9.93;;;;;;;8.74;77.64;99640.72;3578642;40;20083;-64
2021/12/27 11:13:58;;;;;;;11.70;9.45;;;;;;;8.73;77.98;99636.34;3577902;40;20088;-65
2021/12/27 11:16:28;;;;;;;11.85;9.50;;;;;;;8.81;77.97;99629.41;3579448;40;20054;-65
2021/12/27 11:18:58;;;;;;;9.57;8.43;;;;;;;8.81;77.90;99632.09;3578056;40;20146;-64
2021/12/27 11:21:41;;;;;;;11.23;9.77;;;;;;;8.83;78.36;99632.00;3580713;40;20375;-64
2021/12/27 11:24:08;;;;;;;13.73;9.50;;;;;;;8.80;78.01;99632.22;3576557;40;20053;-64
2021/12/27 11:26:39;;;;;;;10.80;9.13;;;;;;;8.78;78.20;99618.06;3580450;40;20478;-64
2021/12/27 11:29:14;;;;;;;11.13;9.23;;;;;;;8.77;79.16;99611.88;3578705;40;20353;-64
2021/12/27 11:31:40;;;;;;;13.90;10.60;;;;;;;8.77;79.47;99611.03;3578810;40;20055;-65
2021/12/27 11:34:12;;;;;;;13.25;9.48;;;;;;;8.74;79.48;99605.88;3581142;40;20058;-64
2021/12/27 11:36:43;;;;;;;11.68;9.50;;;;;;;8.72;79.66;99602.44;3581265;40;20122;-64